Flemington, Pennsylvania
Current Conditions -  °F | °C
As of 1:54 AM on Saturday 25 Oct 2014 (Local Time) from KIPT Reporting Station
Clear Clear  
Wind Chill: 42°   Ceiling: Unl
Heat Index: 46°   Visibility: 10mi
Dew Point: 35°   Wind: 7mph
Humidity: 66%   Direction: 280°W
Pressure: 29.93"   Gusts: NA
Location:  41.2558°N, 77.4987°W
Report Text: KIPT 250554Z AUTO 28006KT 10SM CLR 08/02 A2993 RMK AO2 SLP134 T00780017 10156 20072 58002
Loading
Personal Weather Stations






























Interactive Weather Map
Tropical Storm Tracking
New forecast layout! Learn more

10-Day Weather Forecast

Advertisements
Track Severe Weather on mobile